createdAt,value
2018-11-03T00:00:54.936Z,71.98
2018-11-03T00:05:37.841Z,71.97
2018-11-03T00:10:20.891Z,72.38
2018-11-03T00:15:03.971Z,72.98
2018-11-03T00:19:47.087Z,72.77
2018-11-03T00:24:30.041Z,72.47
2018-11-03T00:29:13.095Z,72.16
2018-11-03T00:33:55.994Z,72.81
2018-11-03T00:38:38.894Z,72.39
2018-11-03T00:43:25.597Z,72.34
2018-11-03T00:48:08.486Z,72.96
2018-11-03T00:52:51.618Z,73.91
2018-11-03T00:57:34.551Z,73.13
2018-11-03T01:02:17.642Z,72.71
2018-11-03T01:07:00.569Z,71.74
2018-11-03T01:11:44.674Z,72.22
2018-11-03T01:16:27.545Z,72.71
2018-11-03T01:21:11.418Z,72.23
2018-11-03T01:25:54.274Z,71.55
2018-11-03T01:30:37.211Z,72.03
2018-11-03T01:35:20.115Z,72.89
2018-11-03T01:40:04.243Z,72.98
2018-11-03T01:44:47.117Z,71.93
2018-11-03T01:49:32.099Z,72.12
2018-11-03T01:54:14.974Z,73.49
2018-11-03T01:58:58.882Z,73.58
2018-11-03T02:03:41.765Z,72.73
2018-11-03T02:08:24.642Z,72.81
2018-11-03T02:13:09.540Z,73.33
2018-11-03T02:17:52.362Z,73.97
2018-11-03T02:22:36.441Z,73.54
2018-11-03T02:27:19.299Z,73.09
2018-11-03T02:32:04.566Z,74.55
2018-11-03T02:36:47.430Z,73.40
2018-11-03T02:41:30.472Z,73.77
2018-11-03T02:46:13.333Z,73.95
2018-11-03T02:50:56.234Z,74.41
2018-11-03T02:55:39.097Z,73.41
2018-11-03T03:00:23.026Z,72.37
2018-11-03T03:05:07.594Z,72.93
2018-11-03T03:09:50.584Z,71.51
2018-11-03T03:14:33.472Z,72.91
2018-11-03T03:19:17.576Z,72.54
2018-11-03T03:24:00.476Z,71.97
2018-11-03T03:28:44.423Z,71.82
2018-11-03T03:33:27.265Z,71.28
2018-11-03T03:38:10.128Z,71.27
2018-11-03T03:42:54.129Z,71.34
2018-11-03T03:47:36.970Z,71.08
2018-11-03T03:52:20.866Z,72.08
2018-11-03T03:57:03.808Z,71.48
2018-11-03T04:01:47.902Z,70.91
2018-11-03T04:06:30.797Z,70.92
2018-11-03T04:11:13.946Z,71.86
2018-11-03T04:15:56.865Z,71.20
2018-11-03T04:20:39.977Z,72.28
2018-11-03T04:25:23.426Z,72.47
2018-11-03T04:30:11.252Z,71.65
2018-11-03T04:34:54.145Z,71.76
2018-11-03T04:39:38.154Z,72.92
2018-11-03T04:44:21.062Z,73.13
2018-11-03T04:49:05.227Z,73.69
2018-11-03T04:53:48.416Z,73.72
2018-11-03T04:58:32.519Z,74.25
2018-11-03T05:03:15.426Z,74.24
2018-11-03T05:07:58.356Z,73.91
2018-11-03T05:12:42.390Z,73.82
2018-11-03T05:17:25.268Z,73.77
2018-11-03T05:22:09.329Z,73.62
2018-11-03T05:26:52.215Z,73.58
2018-11-03T05:31:46.742Z,72.88
2018-11-03T05:36:29.650Z,74.12
2018-11-03T05:42:42.923Z,73.60
2018-11-03T05:47:25.819Z,74.81
2018-11-03T05:52:09.915Z,73.70
2018-11-03T05:56:52.768Z,73.12
2018-11-03T06:01:35.686Z,73.56
2018-11-03T06:06:18.584Z,73.82
2018-11-03T06:11:02.587Z,73.36
2018-11-03T06:15:45.779Z,72.63
2018-11-03T06:21:59.161Z,71.52
2018-11-03T06:26:42.036Z,71.94
2018-11-03T06:31:25.126Z,72.18
2018-11-03T06:36:08.039Z,70.65
2018-11-03T06:40:51.927Z,70.03
2018-11-03T06:45:34.786Z,70.70
2018-11-03T06:50:18.759Z,70.34
2018-11-03T06:55:01.703Z,70.26
2018-11-03T06:59:44.758Z,70.29
2018-11-03T07:04:27.643Z,70.30
2018-11-03T07:09:11.966Z,70.35
2018-11-03T07:13:54.922Z,70.56
2018-11-03T07:18:38.821Z,70.81
2018-11-03T07:23:21.703Z,70.10
2018-11-03T07:28:05.006Z,70.26
2018-11-03T07:32:47.909Z,70.61
2018-11-03T07:37:31.258Z,69.48
2018-11-03T07:42:15.322Z,69.77
2018-11-03T07:46:58.182Z,69.17
2018-11-03T07:51:41.079Z,69.53
2018-11-03T07:56:23.939Z,69.87
2018-11-03T08:01:06.878Z,69.76
2018-11-03T08:05:49.763Z,70.24
2018-11-03T08:10:32.900Z,69.93
2018-11-03T08:15:15.844Z,69.13
2018-11-03T08:19:59.981Z,68.78
2018-11-03T08:24:42.891Z,68.49
2018-11-03T08:29:26.031Z,68.36
2018-11-03T08:34:08.939Z,69.24
2018-11-03T08:38:52.997Z,69.57
2018-11-03T08:43:35.917Z,68.81
2018-11-03T08:48:23.102Z,67.62
2018-11-03T08:53:05.948Z,67.20
2018-11-03T08:57:51.292Z,67.00
2018-11-03T09:02:34.678Z,66.90
2018-11-03T09:07:17.602Z,67.61
2018-11-03T09:12:04.586Z,67.72
2018-11-03T09:16:47.512Z,67.11
2018-11-03T09:21:30.540Z,66.45
2018-11-03T09:26:13.438Z,67.32
2018-11-03T09:30:57.494Z,67.69
2018-11-03T09:35:40.421Z,67.16
2018-11-03T09:40:26.609Z,67.59
2018-11-03T09:45:10.770Z,67.30
2018-11-03T09:49:53.650Z,68.05
2018-11-03T09:54:36.571Z,67.42
2018-11-03T09:59:19.622Z,68.32
2018-11-03T10:04:02.494Z,68.74
2018-11-03T10:08:49.268Z,69.48
2018-11-03T10:13:32.184Z,69.12
2018-11-03T10:18:15.317Z,69.79
2018-11-03T10:22:58.276Z,67.78
2018-11-03T10:27:41.987Z,68.05
2018-11-03T10:32:24.904Z,66.70
2018-11-03T10:37:07.824Z,65.42
2018-11-03T10:41:52.797Z,64.94
2018-11-03T10:46:35.854Z,65.17
2018-11-03T10:51:18.847Z,63.48
2018-11-03T10:56:01.779Z,62.50
2018-11-03T11:02:59.930Z,63.01
2018-11-03T11:07:51.857Z,60.91
2018-11-03T11:12:40.756Z,60.17
2018-11-03T11:22:11.485Z,60.40
2018-11-03T11:26:54.359Z,61.70
2018-11-03T11:31:39.408Z,60.85
2018-11-03T11:36:22.436Z,61.24
2018-11-03T11:41:07.407Z,60.86
2018-11-03T11:45:50.281Z,61.19
2018-11-03T11:50:35.203Z,59.43
2018-11-03T11:55:18.236Z,60.36
2018-11-03T12:00:02.296Z,61.25
2018-11-03T12:04:45.299Z,59.54
2018-11-03T12:09:28.175Z,57.89
2018-11-03T12:14:11.083Z,58.51
2018-11-03T12:18:55.103Z,59.46
2018-11-03T12:23:38.022Z,58.20
2018-11-03T12:28:24.825Z,58.69
2018-11-03T12:33:07.724Z,59.66
2018-11-03T12:37:51.673Z,59.01
2018-11-03T12:42:34.590Z,59.71
2018-11-03T12:47:21.344Z,59.87
2018-11-03T12:52:04.250Z,60.05
2018-11-03T12:56:47.139Z,61.10
2018-11-03T13:01:31.283Z,61.89
2018-11-03T13:06:14.202Z,62.19
2018-11-03T13:10:58.279Z,62.37
2018-11-03T13:15:41.175Z,63.71
2018-11-03T13:20:24.307Z,62.87
2018-11-03T13:25:08.135Z,63.05
2018-11-03T13:29:51.054Z,62.41
2018-11-03T13:34:34.026Z,63.09
2018-11-03T13:39:25.802Z,62.78
2018-11-03T13:44:08.695Z,62.35
2018-11-03T13:48:53.701Z,62.84
2018-11-03T13:53:36.558Z,62.54
2018-11-03T13:58:20.737Z,62.43
2018-11-03T14:03:04.102Z,62.23
2018-11-03T14:07:47.246Z,62.36
2018-11-03T14:12:30.086Z,62.47
2018-11-03T14:17:13.095Z,62.85
2018-11-03T14:21:55.895Z,62.77
2018-11-03T14:26:38.783Z,63.37
2018-11-03T14:31:22.619Z,63.53
2018-11-03T14:36:13.331Z,64.50
2018-11-03T14:40:56.339Z,64.09
2018-11-03T14:45:40.125Z,65.47
2018-11-03T14:50:27.619Z,64.86
2018-11-03T14:55:11.560Z,64.76
2018-11-03T14:59:54.493Z,64.72
2018-11-03T15:04:37.363Z,64.63
2018-11-03T15:09:23.599Z,66.13
2018-11-03T15:14:07.995Z,65.61
2018-11-03T15:18:54.026Z,65.98
2018-11-03T15:23:36.951Z,65.63
2018-11-03T15:28:21.068Z,65.29
2018-11-03T15:33:04.058Z,66.18
2018-11-03T15:37:47.054Z,65.65
2018-11-03T15:42:29.938Z,66.32
2018-11-03T15:47:12.863Z,67.45
2018-11-03T15:51:55.754Z,67.18
2018-11-03T15:56:38.628Z,67.07
2018-11-03T16:01:21.538Z,66.89
2018-11-03T16:06:04.480Z,67.17
2018-11-03T16:10:47.598Z,67.34
2018-11-03T16:15:30.452Z,67.12
2018-11-03T16:20:13.623Z,67.68
2018-11-03T16:24:56.490Z,67.77
2018-11-03T16:29:43.435Z,67.89
2018-11-03T16:34:26.330Z,68.02
2018-11-03T16:39:11.524Z,68.07
2018-11-03T16:43:54.394Z,69.50
2018-11-03T16:48:39.326Z,69.95
2018-11-03T16:53:22.230Z,70.33
2018-11-03T16:58:07.389Z,73.01
2018-11-03T17:02:50.274Z,72.32
2018-11-03T17:07:35.192Z,72.19
2018-11-03T17:12:18.111Z,73.10
2018-11-03T17:17:03.294Z,74.85
2018-11-03T17:21:46.244Z,75.20
2018-11-03T17:26:29.273Z,75.56
2018-11-03T17:31:12.535Z,76.25
2018-11-03T17:35:55.429Z,75.11
2018-11-03T17:40:38.443Z,74.96
2018-11-03T17:45:21.353Z,75.89
2018-11-03T17:50:06.994Z,75.91
2018-11-03T17:54:50.005Z,75.35
2018-11-03T17:59:34.068Z,76.84
2018-11-03T18:04:17.008Z,76.47
2018-11-03T18:09:01.352Z,77.04
2018-11-03T18:13:44.231Z,77.32
2018-11-03T18:18:27.402Z,77.25
2018-11-03T18:23:10.298Z,78.57
2018-11-03T18:27:53.359Z,77.62
2018-11-03T18:32:36.304Z,77.36
2018-11-03T18:37:20.473Z,77.73
2018-11-03T18:42:03.434Z,77.36
2018-11-03T18:46:46.569Z,78.31
2018-11-03T18:51:29.423Z,79.22
2018-11-03T18:56:12.462Z,78.12
2018-11-03T19:00:55.862Z,78.67
2018-11-03T19:05:38.813Z,77.24
2018-11-03T19:10:22.074Z,78.43
2018-11-03T19:15:07.250Z,79.08
2018-11-03T19:19:50.954Z,78.52
2018-11-03T19:24:33.866Z,78.73
2018-11-03T19:47:54.766Z,77.34
2018-11-03T19:52:53.653Z,77.33
2018-11-03T19:57:48.711Z,77.73
2018-11-03T20:02:36.537Z,77.43
2018-11-03T20:07:46.878Z,77.16
2018-11-03T20:12:32.591Z,77.33
2018-11-03T20:22:43.696Z,77.93
2018-11-03T20:27:30.872Z,79.83
2018-11-03T20:32:24.717Z,79.07
2018-11-03T20:37:11.524Z,78.91
2018-11-03T20:41:55.547Z,79.10
2018-11-03T20:46:40.112Z,77.92
2018-11-03T20:51:23.255Z,79.19
2018-11-03T20:56:07.438Z,80.61
2018-11-03T21:00:50.504Z,78.98
2018-11-03T21:05:33.516Z,79.79
2018-11-03T21:10:16.659Z,78.94
2018-11-03T21:14:59.589Z,79.86
2018-11-03T21:19:56.932Z,78.59
2018-11-03T21:24:40.668Z,78.59
2018-11-03T21:29:24.030Z,77.68
2018-11-03T21:34:07.824Z,78.03
2018-11-03T21:38:50.967Z,77.94
2018-11-03T21:43:34.092Z,78.58
2018-11-03T21:48:17.372Z,79.93
2018-11-03T21:53:00.500Z,81.22
2018-11-03T21:57:43.642Z,81.72
2018-11-03T22:02:26.736Z,83.33
2018-11-03T22:07:10.041Z,83.55
2018-11-03T22:11:53.185Z,83.91
2018-11-03T22:16:36.396Z,83.84
2018-11-03T22:21:19.564Z,84.71
2018-11-03T22:26:02.959Z,84.95
2018-11-03T22:30:46.097Z,85.00
2018-11-03T22:35:29.298Z,85.53
2018-11-03T22:40:12.459Z,86.26
2018-11-03T22:44:55.555Z,84.47
2018-11-03T22:49:38.815Z,84.10
2018-11-03T22:54:21.906Z,85.02
2018-11-03T22:59:07.165Z,83.81
2018-11-03T23:03:50.245Z,83.25
2018-11-03T23:08:33.494Z,82.67
2018-11-03T23:13:16.714Z,82.78
2018-11-03T23:18:00.669Z,83.91
2018-11-03T23:22:43.654Z,83.47
2018-11-03T23:27:27.662Z,83.47
2018-11-03T23:32:10.638Z,82.96
2018-11-03T23:36:54.754Z,84.16
2018-11-03T23:41:38.219Z,82.91
2018-11-03T23:46:21.358Z,83.63
2018-11-03T23:51:04.368Z,84.01
2018-11-03T23:55:47.522Z,82.71
